Sharpes, Florida
Current Conditions -  °F | °C
As of 6:50 PM on Saturday 20 Dec 2014 (Local Time) from KTIX Reporting Station
Scattered Clouds Scattered Clouds  
Wind Chill: 66°   Ceiling: Unl
Heat Index: 66°   Visibility: 7mi
Dew Point: 63°   Wind: 5mph
Humidity: 88%   Direction: 100°E
Pressure: 30.09"   Gusts: NA
Location:  28.43°N, 80.76°W
Report Text: KTIX 202350Z 10004KT 7SM SCT100 19/17 A3009
Loading
Personal Weather Stations






























Interactive Weather Map New forecast layout! Learn more

10-Day Weather Forecast

Advertisements
Track Severe Weather on mobile